sensor_id;sensor_type;location;lat;lon;timestamp;pressure;altitude;pressure_sealevel;temperature;humidity
74552;BME280;63025;55.472;38.432;2023-05-23T00:00:55;100569.63;;;12.30;73.95
74552;BME280;63025;55.472;38.432;2023-05-23T00:03:27;100571.69;;;12.28;73.99
74552;BME280;63025;55.472;38.432;2023-05-23T00:05:53;100567.13;;;12.28;74.10
74552;BME280;63025;55.472;38.432;2023-05-23T00:08:21;100566.09;;;12.29;73.92
74552;BME280;63025;55.472;38.432;2023-05-23T00:10:47;100572.13;;;12.31;73.43
74552;BME280;63025;55.472;38.432;2023-05-23T00:13:14;100570.03;;;12.33;73.43
74552;BME280;63025;55.472;38.432;2023-05-23T00:15:41;100568.19;;;12.34;73.43
74552;BME280;63025;55.472;38.432;2023-05-23T00:18:08;100559.66;;;12.30;73.22
74552;BME280;63025;55.472;38.432;2023-05-23T00:20:36;100575.00;;;12.30;73.27
74552;BME280;63025;55.472;38.432;2023-05-23T00:23:09;100562.56;;;12.29;73.19
74552;BME280;63025;55.472;38.432;2023-05-23T00:25:36;100578.94;;;12.27;72.82
74552;BME280;63025;55.472;38.432;2023-05-23T00:28:03;100578.31;;;12.25;72.95
74552;BME280;63025;55.472;38.432;2023-05-23T00:30:31;100580.41;;;12.23;72.81
74552;BME280;63025;55.472;38.432;2023-05-23T00:32:59;100578.13;;;12.20;72.77
74552;BME280;63025;55.472;38.432;2023-05-23T00:35:26;100575.00;;;12.17;72.73
74552;BME280;63025;55.472;38.432;2023-05-23T00:38:01;100577.69;;;12.17;72.78
74552;BME280;63025;55.472;38.432;2023-05-23T00:40:26;100572.31;;;12.17;72.70
74552;BME280;63025;55.472;38.432;2023-05-23T00:42:52;100580.81;;;12.13;72.72
74552;BME280;63025;55.472;38.432;2023-05-23T00:45:18;100580.41;;;12.10;72.86
74552;BME280;63025;55.472;38.432;2023-05-23T00:47:45;100571.69;;;12.08;72.70
74552;BME280;63025;55.472;38.432;2023-05-23T00:50:13;100582.06;;;12.11;72.50
74552;BME280;63025;55.472;38.432;2023-05-23T00:52:42;100587.03;;;12.14;72.34
74552;BME280;63025;55.472;38.432;2023-05-23T00:55:09;100587.88;;;12.15;72.50
74552;BME280;63025;55.472;38.432;2023-05-23T00:57:36;100582.88;;;12.18;72.00
74552;BME280;63025;55.472;38.432;2023-05-23T01:00:11;100575.84;;;12.24;71.86
74552;BME280;63025;55.472;38.432;2023-05-23T01:02:42;100578.31;;;12.25;71.92
74552;BME280;63025;55.472;38.432;2023-05-23T01:05:11;100578.34;;;12.32;71.91
74552;BME280;63025;55.472;38.432;2023-05-23T01:07:39;100582.25;;;12.36;71.39
74552;BME280;63025;55.472;38.432;2023-05-23T01:10:08;100583.50;;;12.40;71.06
74552;BME280;63025;55.472;38.432;2023-05-23T01:13:00;100581.66;;;12.40;70.86
74552;BME280;63025;55.472;38.432;2023-05-23T01:18:50;100576.88;;;12.49;70.33
74552;BME280;63025;55.472;38.432;2023-05-23T01:21:20;100581.66;;;12.54;70.27
74552;BME280;63025;55.472;38.432;2023-05-23T01:29:21;100584.72;;;12.77;69.11
74552;BME280;63025;55.472;38.432;2023-05-23T01:31:52;100570.38;;;12.83;69.18
74552;BME280;63025;55.472;38.432;2023-05-23T01:34:20;100577.63;;;12.89;69.30
74552;BME280;63025;55.472;38.432;2023-05-23T01:36:49;100581.56;;;12.93;69.98
74552;BME280;63025;55.472;38.432;2023-05-23T01:39:19;100575.94;;;13.01;69.89
74552;BME280;63025;55.472;38.432;2023-05-23T01:41:45;100580.91;;;13.04;70.13
74552;BME280;63025;55.472;38.432;2023-05-23T01:44:11;100566.78;;;13.09;69.92
74552;BME280;63025;55.472;38.432;2023-05-23T01:46:37;100579.63;;;13.13;69.43
74552;BME280;63025;55.472;38.432;2023-05-23T01:49:06;100579.84;;;13.18;68.86
74552;BME280;63025;55.472;38.432;2023-05-23T01:51:33;100582.75;;;13.23;68.51
74552;BME280;63025;55.472;38.432;2023-05-23T01:54:00;100586.69;;;13.28;68.31
74552;BME280;63025;55.472;38.432;2023-05-23T01:56:26;100580.63;;;13.32;68.10
74552;BME280;63025;55.472;38.432;2023-05-23T01:58:53;100576.84;;;13.40;67.60
74552;BME280;63025;55.472;38.432;2023-05-23T02:01:21;100576.00;;;13.46;67.63
74552;BME280;63025;55.472;38.432;2023-05-23T02:03:47;100587.19;;;13.56;67.08
74552;BME280;63025;55.472;38.432;2023-05-23T02:06:14;100581.72;;;13.63;66.79
74552;BME280;63025;55.472;38.432;2023-05-23T02:08:40;100589.34;;;13.72;66.73
74552;BME280;63025;55.472;38.432;2023-05-23T02:11:05;100576.66;;;13.79;65.95
74552;BME280;63025;55.472;38.432;2023-05-23T02:13:34;100588.88;;;13.88;66.08
74552;BME280;63025;55.472;38.432;2023-05-23T02:16:00;100593.00;;;13.91;66.34
74552;BME280;63025;55.472;38.432;2023-05-23T02:18:26;100589.22;;;13.99;65.81
74552;BME280;63025;55.472;38.432;2023-05-23T02:21:13;100593.47;;;14.13;65.11
74552;BME280;63025;55.472;38.432;2023-05-23T02:23:39;100581.34;;;14.22;65.06
74552;BME280;63025;55.472;38.432;2023-05-23T02:26:05;100592.72;;;14.30;65.27
74552;BME280;63025;55.472;38.432;2023-05-23T02:28:31;100587.91;;;14.39;64.93
74552;BME280;63025;55.472;38.432;2023-05-23T02:30:57;100585.50;;;14.49;64.69
74552;BME280;63025;55.472;38.432;2023-05-23T02:33:22;100583.56;;;14.56;64.68
74552;BME280;63025;55.472;38.432;2023-05-23T02:35:50;100582.44;;;14.64;64.54
74552;BME280;63025;55.472;38.432;2023-05-23T02:38:16;100586.78;;;14.72;64.22
74552;BME280;63025;55.472;38.432;2023-05-23T02:40:44;100573.84;;;14.74;64.09
74552;BME280;63025;55.472;38.432;2023-05-23T02:43:10;100573.69;;;14.87;63.96
74552;BME280;63025;55.472;38.432;2023-05-23T02:45:36;100582.59;;;14.94;64.78
74552;BME280;63025;55.472;38.432;2023-05-23T02:48:03;100577.84;;;14.89;63.70
74552;BME280;63025;55.472;38.432;2023-05-23T02:50:29;100582.13;;;14.97;63.18
74552;BME280;63025;55.472;38.432;2023-05-23T02:52:54;100583.47;;;15.06;63.29
74552;BME280;63025;55.472;38.432;2023-05-23T02:55:20;100588.44;;;15.09;63.53
74552;BME280;63025;55.472;38.432;2023-05-23T02:57:49;100571.06;;;15.17;62.73
74552;BME280;63025;55.472;38.432;2023-05-23T03:00:16;100577.47;;;15.22;63.00
74552;BME280;63025;55.472;38.432;2023-05-23T03:02:47;100574.06;;;15.27;63.15
74552;BME280;63025;55.472;38.432;2023-05-23T03:05:13;100574.00;;;15.33;62.80
74552;BME280;63025;55.472;38.432;2023-05-23T03:07:38;100572.47;;;15.37;62.83
74552;BME280;63025;55.472;38.432;2023-05-23T03:10:05;100573.69;;;15.41;63.04
74552;BME280;63025;55.472;38.432;2023-05-23T03:12:31;100579.47;;;15.45;63.31
74552;BME280;63025;55.472;38.432;2023-05-23T03:14:57;100569.00;;;15.49;63.01
74552;BME280;63025;55.472;38.432;2023-05-23T03:17:24;100556.88;;;15.51;62.77
74552;BME280;63025;55.472;38.432;2023-05-23T03:19:50;100562.72;;;15.55;62.74
74552;BME280;63025;55.472;38.432;2023-05-23T03:22:18;100556.34;;;15.61;62.33
74552;BME280;63025;55.472;38.432;2023-05-23T03:24:44;100554.03;;;15.64;62.23
74552;BME280;63025;55.472;38.432;2023-05-23T03:27:10;100552.03;;;15.71;62.45
74552;BME280;63025;55.472;38.432;2023-05-23T03:29:37;100563.94;;;15.70;62.76
74552;BME280;63025;55.472;38.432;2023-05-23T03:32:03;100561.22;;;15.70;62.98
74552;BME280;63025;55.472;38.432;2023-05-23T03:34:29;100561.16;;;15.77;63.05
74552;BME280;63025;55.472;38.432;2023-05-23T03:36:57;100557.94;;;15.80;63.23
74552;BME280;63025;55.472;38.432;2023-05-23T03:39:23;100566.09;;;15.80;63.85
74552;BME280;63025;55.472;38.432;2023-05-23T03:41:49;100561.72;;;15.79;64.94
74552;BME280;63025;55.472;38.432;2023-05-23T03:44:15;100567.75;;;15.81;65.43
74552;BME280;63025;55.472;38.432;2023-05-23T03:46:41;100580.47;;;15.81;65.18
74552;BME280;63025;55.472;38.432;2023-05-23T03:49:07;100575.41;;;15.84;64.98
74552;BME280;63025;55.472;38.432;2023-05-23T03:51:33;100574.13;;;15.87;65.46
74552;BME280;63025;55.472;38.432;2023-05-23T03:53:59;100576.13;;;15.91;64.99
74552;BME280;63025;55.472;38.432;2023-05-23T03:56:25;100597.50;;;15.99;66.36
74552;BME280;63025;55.472;38.432;2023-05-23T03:58:51;100604.22;;;15.97;66.28
74552;BME280;63025;55.472;38.432;2023-05-23T04:01:17;100603.25;;;15.91;65.30
74552;BME280;63025;55.472;38.432;2023-05-23T04:03:45;100595.94;;;15.92;65.27
74552;BME280;63025;55.472;38.432;2023-05-23T04:06:13;100608.91;;;15.90;64.86
74552;BME280;63025;55.472;38.432;2023-05-23T04:08:40;100599.94;;;15.89;64.28
74552;BME280;63025;55.472;38.432;2023-05-23T04:11:06;100598.31;;;15.88;64.01
74552;BME280;63025;55.472;38.432;2023-05-23T04:13:35;100598.75;;;15.85;63.82
74552;BME280;63025;55.472;38.432;2023-05-23T04:16:02;100601.69;;;15.84;63.97
74552;BME280;63025;55.472;38.432;2023-05-23T04:18:31;100600.03;;;15.83;63.90
74552;BME280;63025;55.472;38.432;2023-05-23T04:21:05;100615.84;;;15.86;63.81
74552;BME280;63025;55.472;38.432;2023-05-23T04:23:33;100610.22;;;15.87;64.24
74552;BME280;63025;55.472;38.432;2023-05-23T04:26:00;100609.16;;;15.88;63.92
74552;BME280;63025;55.472;38.432;2023-05-23T04:28:33;100615.03;;;15.85;63.63
74552;BME280;63025;55.472;38.432;2023-05-23T04:30:59;100622.72;;;15.88;64.00
74552;BME280;63025;55.472;38.432;2023-05-23T04:33:30;100615.75;;;15.92;63.67
74552;BME280;63025;55.472;38.432;2023-05-23T04:35:55;100611.53;;;15.96;63.83
74552;BME280;63025;55.472;38.432;2023-05-23T04:38:22;100621.56;;;15.96;63.84
74552;BME280;63025;55.472;38.432;2023-05-23T04:40:50;100615.66;;;15.99;63.79
74552;BME280;63025;55.472;38.432;2023-05-23T04:43:38;100618.34;;;15.99;63.96
74552;BME280;63025;55.472;38.432;2023-05-23T04:46:39;100618.28;;;16.05;63.55
74552;BME280;63025;55.472;38.432;2023-05-23T04:49:17;100609.69;;;16.08;63.67
74552;BME280;63025;55.472;38.432;2023-05-23T04:51:46;100614.28;;;16.08;63.56
74552;BME280;63025;55.472;38.432;2023-05-23T04:54:26;100601.56;;;16.08;63.46
74552;BME280;63025;55.472;38.432;2023-05-23T04:56:53;100603.78;;;16.11;63.20
74552;BME280;63025;55.472;38.432;2023-05-23T04:59:21;100607.69;;;16.15;63.29
74552;BME280;63025;55.472;38.432;2023-05-23T05:01:47;100599.66;;;16.21;62.82
74552;BME280;63025;55.472;38.432;2023-05-23T05:04:13;100602.63;;;16.31;62.87
74552;BME280;63025;55.472;38.432;2023-05-23T05:06:40;100601.28;;;16.40;62.71
74552;BME280;63025;55.472;38.432;2023-05-23T05:09:07;100598.19;;;16.48;62.48
74552;BME280;63025;55.472;38.432;2023-05-23T05:11:34;100589.47;;;16.58;62.34
74552;BME280;63025;55.472;38.432;2023-05-23T05:14:01;100593.38;;;16.73;62.33
74552;BME280;63025;55.472;38.432;2023-05-23T05:16:27;100593.75;;;16.88;62.21
74552;BME280;63025;55.472;38.432;2023-05-23T05:18:53;100596.78;;;17.04;61.90
74552;BME280;63025;55.472;38.432;2023-05-23T05:21:20;100598.66;;;17.15;61.79
74552;BME280;63025;55.472;38.432;2023-05-23T05:23:46;100582.94;;;17.29;61.64
74552;BME280;63025;55.472;38.432;2023-05-23T05:26:14;100588.63;;;17.55;61.13
74552;BME280;63025;55.472;38.432;2023-05-23T05:28:40;100585.03;;;17.78;61.02
74552;BME280;63025;55.472;38.432;2023-05-23T05:31:06;100587.88;;;18.00;60.17
74552;BME280;63025;55.472;38.432;2023-05-23T05:33:34;100589.66;;;18.23;59.40
74552;BME280;63025;55.472;38.432;2023-05-23T05:36:10;100581.22;;;18.41;58.58
74552;BME280;63025;55.472;38.432;2023-05-23T05:38:35;100583.38;;;18.56;58.02
74552;BME280;63025;55.472;38.432;2023-05-23T05:41:01;100583.22;;;18.62;57.97
74552;BME280;63025;55.472;38.432;2023-05-23T05:43:32;100583.06;;;18.69;57.56
74552;BME280;63025;55.472;38.432;2023-05-23T05:45:58;100589.75;;;18.78;57.82
74552;BME280;63025;55.472;38.432;2023-05-23T05:48:24;100580.41;;;18.74;57.90
74552;BME280;63025;55.472;38.432;2023-05-23T05:50:52;100587.84;;;18.79;57.80
74552;BME280;63025;55.472;38.432;2023-05-23T05:53:18;100589.81;;;18.83;57.81
74552;BME280;63025;55.472;38.432;2023-05-23T05:55:44;100591.13;;;18.81;57.80
74552;BME280;63025;55.472;38.432;2023-05-23T05:58:10;100578.09;;;18.83;57.69
74552;BME280;63025;55.472;38.432;2023-05-23T06:00:49;100576.00;;;18.90;57.77
74552;BME280;63025;55.472;38.432;2023-05-23T06:03:15;100561.63;;;18.94;57.52
74552;BME280;63025;55.472;38.432;2023-05-23T06:05:50;100543.78;;;19.03;57.64
74552;BME280;63025;55.472;38.432;2023-05-23T06:08:16;100553.22;;;19.18;57.57
74552;BME280;63025;55.472;38.432;2023-05-23T06:10:42;100543.56;;;19.32;57.65
74552;BME280;63025;55.472;38.432;2023-05-23T06:13:08;100542.38;;;19.44;57.52
74552;BME280;63025;55.472;38.432;2023-05-23T06:15:35;100557.53;;;19.57;57.47
74552;BME280;63025;55.472;38.432;2023-05-23T06:18:01;100539.38;;;19.68;57.44
74552;BME280;63025;55.472;38.432;2023-05-23T06:20:29;100532.44;;;19.82;56.92
74552;BME280;63025;55.472;38.432;2023-05-23T06:22:58;100528.50;;;20.00;56.83
74552;BME280;63025;55.472;38.432;2023-05-23T06:25:26;100527.53;;;20.16;56.33
74552;BME280;63025;55.472;38.432;2023-05-23T06:27:52;100535.28;;;20.24;56.36
74552;BME280;63025;55.472;38.432;2023-05-23T06:30:18;100539.63;;;20.25;56.13
74552;BME280;63025;55.472;38.432;2023-05-23T06:32:44;100538.13;;;20.39;55.85
74552;BME280;63025;55.472;38.432;2023-05-23T06:35:10;100535.53;;;20.55;55.73
74552;BME280;63025;55.472;38.432;2023-05-23T06:37:35;100538.25;;;20.60;55.33
74552;BME280;63025;55.472;38.432;2023-05-23T06:40:01;100535.28;;;20.66;55.61
74552;BME280;63025;55.472;38.432;2023-05-23T06:42:31;100532.66;;;20.76;55.47
74552;BME280;63025;55.472;38.432;2023-05-23T06:45:09;100523.13;;;20.84;55.75
74552;BME280;63025;55.472;38.432;2023-05-23T06:47:36;100527.72;;;20.78;55.57
74552;BME280;63025;55.472;38.432;2023-05-23T06:50:03;100533.44;;;20.72;55.10
74552;BME280;63025;55.472;38.432;2023-05-23T06:52:31;100536.06;;;20.57;54.81
74552;BME280;63025;55.472;38.432;2023-05-23T06:54:58;100541.50;;;20.51;55.28
74552;BME280;63025;55.472;38.432;2023-05-23T06:57:24;100548.09;;;20.56;55.77
74552;BME280;63025;55.472;38.432;2023-05-23T06:59:50;100547.03;;;20.67;55.63
74552;BME280;63025;55.472;38.432;2023-05-23T07:02:16;100551.53;;;20.88;55.84
74552;BME280;63025;55.472;38.432;2023-05-23T07:04:42;100548.38;;;21.06;55.49
74552;BME280;63025;55.472;38.432;2023-05-23T07:07:16;100552.31;;;21.26;54.93
74552;BME280;63025;55.472;38.432;2023-05-23T07:09:43;100553.69;;;21.33;54.03
74552;BME280;63025;55.472;38.432;2023-05-23T07:12:15;100548.28;;;21.38;54.23
74552;BME280;63025;55.472;38.432;2023-05-23T07:14:43;100553.03;;;21.06;54.50
74552;BME280;63025;55.472;38.432;2023-05-23T07:17:09;100550.19;;;20.91;55.48
74552;BME280;63025;55.472;38.432;2023-05-23T07:19:36;100548.34;;;21.01;55.09
74552;BME280;63025;55.472;38.432;2023-05-23T07:22:02;100543.78;;;21.17;55.58
74552;BME280;63025;55.472;38.432;2023-05-23T07:24:30;100547.88;;;21.14;55.18
74552;BME280;63025;55.472;38.432;2023-05-23T07:26:56;100550.50;;;20.94;55.46
74552;BME280;63025;55.472;38.432;2023-05-23T07:29:24;100551.31;;;20.95;55.78
74552;BME280;63025;55.472;38.432;2023-05-23T07:31:51;100558.06;;;20.82;56.26
74552;BME280;63025;55.472;38.432;2023-05-23T07:34:19;100557.25;;;20.76;56.24
74552;BME280;63025;55.472;38.432;2023-05-23T07:36:51;100558.25;;;20.65;56.43
74552;BME280;63025;55.472;38.432;2023-05-23T07:39:18;100558.97;;;20.50;57.25
74552;BME280;63025;55.472;38.432;2023-05-23T07:41:48;100564.72;;;20.22;57.43
74552;BME280;63025;55.472;38.432;2023-05-23T07:44:18;100561.84;;;20.07;57.62
74552;BME280;63025;55.472;38.432;2023-05-23T07:46:44;100566.13;;;19.98;58.35
74552;BME280;63025;55.472;38.432;2023-05-23T07:49:10;100570.41;;;19.89;58.43
74552;BME280;63025;55.472;38.432;2023-05-23T07:51:35;100568.97;;;19.81;58.92
74552;BME280;63025;55.472;38.432;2023-05-23T07:54:02;100561.41;;;19.88;59.65
74552;BME280;63025;55.472;38.432;2023-05-23T07:56:28;100564.63;;;19.85;59.91
74552;BME280;63025;55.472;38.432;2023-05-23T07:58:54;100563.09;;;19.67;59.86
74552;BME280;63025;55.472;38.432;2023-05-23T08:01:20;100566.34;;;19.64;60.21
74552;BME280;63025;55.472;38.432;2023-05-23T08:03:52;100564.13;;;19.61;60.86
74552;BME280;63025;55.472;38.432;2023-05-23T08:06:24;100553.59;;;19.70;61.21
74552;BME280;63025;55.472;38.432;2023-05-23T08:08:51;100549.00;;;19.75;61.11
74552;BME280;63025;55.472;38.432;2023-05-23T08:11:17;100558.25;;;19.74;61.00
74552;BME280;63025;55.472;38.432;2023-05-23T08:13:47;100573.41;;;19.60;61.21
74552;BME280;63025;55.472;38.432;2023-05-23T08:16:33;100583.22;;;19.61;61.45
74552;BME280;63025;55.472;38.432;2023-05-23T08:18:59;100580.50;;;19.61;61.52
74552;BME280;63025;55.472;38.432;2023-05-23T08:21:27;100577.19;;;19.59;62.43
74552;BME280;63025;55.472;38.432;2023-05-23T08:23:52;100580.19;;;19.58;62.29
74552;BME280;63025;55.472;38.432;2023-05-23T08:26:19;100576.72;;;19.46;62.65
74552;BME280;63025;55.472;38.432;2023-05-23T08:28:46;100575.44;;;19.48;63.22
74552;BME280;63025;55.472;38.432;2023-05-23T08:31:12;100572.31;;;19.39;62.91
74552;BME280;63025;55.472;38.432;2023-05-23T08:33:38;100573.31;;;19.33;63.95
74552;BME280;63025;55.472;38.432;2023-05-23T08:36:03;100572.81;;;19.36;64.23
74552;BME280;63025;55.472;38.432;2023-05-23T08:38:29;100580.50;;;19.39;64.45
74552;BME280;63025;55.472;38.432;2023-05-23T08:41:15;100579.81;;;19.49;64.19
74552;BME280;63025;55.472;38.432;2023-05-23T08:43:43;100580.03;;;19.48;64.68
74552;BME280;63025;55.472;38.432;2023-05-23T08:46:14;100581.22;;;19.52;64.99
74552;BME280;63025;55.472;38.432;2023-05-23T08:48:42;100575.19;;;19.50;64.76
74552;BME280;63025;55.472;38.432;2023-05-23T08:51:13;100572.47;;;19.50;65.57
74552;BME280;63025;55.472;38.432;2023-05-23T08:53:41;100574.97;;;19.56;64.98
74552;BME280;63025;55.472;38.432;2023-05-23T08:56:14;100577.25;;;19.64;65.20
74552;BME280;63025;55.472;38.432;2023-05-23T08:58:46;100578.03;;;19.60;65.21
74552;BME280;63025;55.472;38.432;2023-05-23T09:01:14;100577.13;;;19.54;65.91
74552;BME280;63025;55.472;38.432;2023-05-23T09:03:43;100580.25;;;19.41;66.36
74552;BME280;63025;55.472;38.432;2023-05-23T09:06:35;100575.56;;;19.41;66.63
74552;BME280;63025;55.472;38.432;2023-05-23T09:09:02;100567.25;;;19.48;66.21
74552;BME280;63025;55.472;38.432;2023-05-23T09:11:30;100580.69;;;19.55;66.48
74552;BME280;63025;55.472;38.432;2023-05-23T09:13:58;100578.53;;;19.57;66.79
74552;BME280;63025;55.472;38.432;2023-05-23T09:16:32;100583.78;;;19.63;66.96
74552;BME280;63025;55.472;38.432;2023-05-23T09:19:09;100571.84;;;19.69;66.92
74552;BME280;63025;55.472;38.432;2023-05-23T09:21:36;100587.44;;;19.74;66.02
74552;BME280;63025;55.472;38.432;2023-05-23T09:24:11;100585.97;;;19.61;65.98
74552;BME280;63025;55.472;38.432;2023-05-23T09:26:38;100565.75;;;19.62;66.38
74552;BME280;63025;55.472;38.432;2023-05-23T09:29:05;100568.88;;;19.71;66.41
74552;BME280;63025;55.472;38.432;2023-05-23T09:31:32;100576.22;;;19.70;66.77
74552;BME280;63025;55.472;38.432;2023-05-23T09:33:58;100571.50;;;19.61;66.82
74552;BME280;63025;55.472;38.432;2023-05-23T09:36:28;100573.91;;;19.57;66.85
74552;BME280;63025;55.472;38.432;2023-05-23T09:38:55;100577.78;;;19.61;67.12
74552;BME280;63025;55.472;38.432;2023-05-23T09:41:21;100583.28;;;19.66;67.26
74552;BME280;63025;55.472;38.432;2023-05-23T09:43:53;100566.88;;;19.61;67.69
74552;BME280;63025;55.472;38.432;2023-05-23T09:46:20;100569.59;;;19.61;68.35
74552;BME280;63025;55.472;38.432;2023-05-23T09:48:50;100572.81;;;19.58;68.04
74552;BME280;63025;55.472;38.432;2023-05-23T09:51:20;100566.97;;;19.71;67.98
74552;BME280;63025;55.472;38.432;2023-05-23T09:53:46;100567.44;;;19.90;67.67
74552;BME280;63025;55.472;38.432;2023-05-23T09:56:12;100578.47;;;20.05;67.59
74552;BME280;63025;55.472;38.432;2023-05-23T09:58:48;100569.88;;;20.19;67.18
74552;BME280;63025;55.472;38.432;2023-05-23T10:01:15;100570.53;;;20.31;67.25
74552;BME280;63025;55.472;38.432;2023-05-23T10:03:50;100573.91;;;20.11;66.90
74552;BME280;63025;55.472;38.432;2023-05-23T10:06:30;100574.59;;;20.28;67.41
74552;BME280;63025;55.472;38.432;2023-05-23T10:09:04;100573.00;;;20.32;66.08
74552;BME280;63025;55.472;38.432;2023-05-23T10:14:06;100563.28;;;20.41;66.20
74552;BME280;63025;55.472;38.432;2023-05-23T10:17:19;100566.59;;;20.85;65.58
74552;BME280;63025;55.472;38.432;2023-05-23T10:22:06;100563.03;;;21.37;63.57
74552;BME280;63025;55.472;38.432;2023-05-23T10:24:34;100552.69;;;21.54;62.72
74552;BME280;63025;55.472;38.432;2023-05-23T10:27:02;100553.00;;;21.68;62.25
74552;BME280;63025;55.472;38.432;2023-05-23T10:29:28;100563.69;;;21.80;60.73
74552;BME280;63025;55.472;38.432;2023-05-23T10:31:56;100560.69;;;21.91;60.27
74552;BME280;63025;55.472;38.432;2023-05-23T10:34:28;100564.03;;;22.24;59.56
74552;BME280;63025;55.472;38.432;2023-05-23T10:37:05;100560.19;;;22.50;58.93
74552;BME280;63025;55.472;38.432;2023-05-23T10:42:16;100550.03;;;22.76;57.48
74552;BME280;63025;55.472;38.432;2023-05-23T10:44:44;100545.34;;;22.87;57.25
74552;BME280;63025;55.472;38.432;2023-05-23T10:47:09;100548.00;;;23.12;56.59
74552;BME280;63025;55.472;38.432;2023-05-23T10:49:47;100552.59;;;23.27;55.99
74552;BME280;63025;55.472;38.432;2023-05-23T10:52:17;100549.03;;;23.26;56.42
74552;BME280;63025;55.472;38.432;2023-05-23T10:54:46;100543.31;;;23.23;56.11
74552;BME280;63025;55.472;38.432;2023-05-23T10:57:15;100542.22;;;23.19;55.43
74552;BME280;63025;55.472;38.432;2023-05-23T10:59:42;100538.59;;;23.33;55.44
74552;BME280;63025;55.472;38.432;2023-05-23T11:02:13;100537.91;;;23.62;54.69
74552;BME280;63025;55.472;38.432;2023-05-23T11:04:42;100528.53;;;24.70;53.35
74552;BME280;63025;55.472;38.432;2023-05-23T11:07:28;100533.91;;;25.51;49.73
74552;BME280;63025;55.472;38.432;2023-05-23T11:12:39;100531.38;;;25.92;49.72
74552;BME280;63025;55.472;38.432;2023-05-23T11:15:25;100523.53;;;26.00;49.38
74552;BME280;63025;55.472;38.432;2023-05-23T11:17:55;100520.38;;;25.74;48.45
74552;BME280;63025;55.472;38.432;2023-05-23T11:20:25;100524.53;;;25.52;48.09
74552;BME280;63025;55.472;38.432;2023-05-23T11:22:58;100530.13;;;25.23;49.51
74552;BME280;63025;55.472;38.432;2023-05-23T11:25:43;100523.31;;;24.97;50.74
74552;BME280;63025;55.472;38.432;2023-05-23T11:28:10;100522.72;;;24.71;51.56
74552;BME280;63025;55.472;38.432;2023-05-23T11:30:37;100523.56;;;24.43;52.63
74552;BME280;63025;55.472;38.432;2023-05-23T11:33:08;100507.00;;;24.24;53.60
74552;BME280;63025;55.472;38.432;2023-05-23T11:35:45;100509.41;;;23.97;54.17
74552;BME280;63025;55.472;38.432;2023-05-23T11:38:13;100504.28;;;23.85;54.52
74552;BME280;63025;55.472;38.432;2023-05-23T11:40:40;100507.16;;;23.65;54.81
74552;BME280;63025;55.472;38.432;2023-05-23T11:43:08;100500.03;;;23.64;55.07
74552;BME280;63025;55.472;38.432;2023-05-23T11:45:36;100502.81;;;23.59;55.47
74552;BME280;63025;55.472;38.432;2023-05-23T11:48:15;100495.75;;;23.37;55.27
74552;BME280;63025;55.472;38.432;2023-05-23T11:53:09;100491.53;;;23.11;56.09
74552;BME280;63025;55.472;38.432;2023-05-23T11:55:38;100491.25;;;23.08;57.10
74552;BME280;63025;55.472;38.432;2023-05-23T11:58:04;100490.47;;;23.02;56.80
74552;BME280;63025;55.472;38.432;2023-05-23T12:00:30;100494.50;;;23.20;56.55
74552;BME280;63025;55.472;38.432;2023-05-23T12:02:56;100493.69;;;23.19;56.48
74552;BME280;63025;55.472;38.432;2023-05-23T12:05:22;100493.56;;;23.39;56.03
74552;BME280;63025;55.472;38.432;2023-05-23T12:07:48;100492.38;;;23.61;56.22
74552;BME280;63025;55.472;38.432;2023-05-23T12:10:15;100495.09;;;23.66;55.71
74552;BME280;63025;55.472;38.432;2023-05-23T12:12:42;100491.81;;;23.64;55.96
74552;BME280;63025;55.472;38.432;2023-05-23T12:15:10;100488.28;;;23.48;55.72
74552;BME280;63025;55.472;38.432;2023-05-23T12:17:37;100484.00;;;23.32;55.59
74552;BME280;63025;55.472;38.432;2023-05-23T12:20:05;100471.59;;;23.50;56.13
74552;BME280;63025;55.472;38.432;2023-05-23T12:22:31;100473.91;;;23.71;55.90
74552;BME280;63025;55.472;38.432;2023-05-23T12:24:57;100470.75;;;23.88;55.27
74552;BME280;63025;55.472;38.432;2023-05-23T12:27:30;100464.50;;;23.77;55.26
74552;BME280;63025;55.472;38.432;2023-05-23T12:32:42;100460.16;;;23.76;55.21
74552;BME280;63025;55.472;38.432;2023-05-23T12:35:10;100470.25;;;23.81;55.33
74552;BME280;63025;55.472;38.432;2023-05-23T12:37:39;100467.56;;;23.76;55.53
74552;BME280;63025;55.472;38.432;2023-05-23T12:40:16;100456.94;;;23.64;56.03
74552;BME280;63025;55.472;38.432;2023-05-23T12:42:55;100467.94;;;23.64;56.29
74552;BME280;63025;55.472;38.432;2023-05-23T12:47:55;100461.22;;;24.09;56.16
74552;BME280;63025;55.472;38.432;2023-05-23T12:50:21;100462.72;;;24.55;53.72
74552;BME280;63025;55.472;38.432;2023-05-23T12:52:47;100460.16;;;25.11;53.07
74552;BME280;63025;55.472;38.432;2023-05-23T12:55:13;100456.34;;;25.44;51.29
74552;BME280;63025;55.472;38.432;2023-05-23T12:57:39;100444.22;;;25.83;50.74
74552;BME280;63025;55.472;38.432;2023-05-23T13:00:05;100434.38;;;25.95;49.25
74552;BME280;63025;55.472;38.432;2023-05-23T13:02:34;100437.56;;;26.16;49.41
74552;BME280;63025;55.472;38.432;2023-05-23T13:05:00;100447.28;;;26.14;48.90
74552;BME280;63025;55.472;38.432;2023-05-23T13:07:26;100442.50;;;25.87;48.28
74552;BME280;63025;55.472;38.432;2023-05-23T13:09:52;100456.13;;;25.59;48.25
74552;BME280;63025;55.472;38.432;2023-05-23T13:12:18;100451.16;;;25.43;48.59
74552;BME280;63025;55.472;38.432;2023-05-23T13:14:44;100449.22;;;25.24;49.28